sensor_id;sensor_type;location;lat;lon;timestamp;P1;durP1;ratioP1;P2;durP2;ratioP2
50092;SDS011;35974;47.752;10.290;2023-03-23T00:02:02;8.50;;;5.10;;
50092;SDS011;35974;47.752;10.290;2023-03-23T00:04:27;6.93;;;4.93;;
50092;SDS011;35974;47.752;10.290;2023-03-23T00:06:54;9.18;;;5.38;;
50092;SDS011;35974;47.752;10.290;2023-03-23T00:09:19;7.50;;;5.03;;
50092;SDS011;35974;47.752;10.290;2023-03-23T00:11:50;8.02;;;5.32;;
50092;SDS011;35974;47.752;10.290;2023-03-23T00:14:16;9.00;;;5.50;;
50092;SDS011;35974;47.752;10.290;2023-03-23T00:16:47;11.07;;;5.38;;
50092;SDS011;35974;47.752;10.290;2023-03-23T00:19:18;7.97;;;4.93;;
50092;SDS011;35974;47.752;10.290;2023-03-23T00:21:44;9.32;;;5.10;;
50092;SDS011;35974;47.752;10.290;2023-03-23T00:24:16;8.63;;;5.13;;
50092;SDS011;35974;47.752;10.290;2023-03-23T00:26:48;8.40;;;5.22;;
50092;SDS011;35974;47.752;10.290;2023-03-23T00:29:15;10.45;;;5.50;;
50092;SDS011;35974;47.752;10.290;2023-03-23T00:31:43;8.18;;;5.10;;
50092;SDS011;35974;47.752;10.290;2023-03-23T00:34:17;8.75;;;4.80;;
50092;SDS011;35974;47.752;10.290;2023-03-23T00:36:45;7.57;;;5.00;;
50092;SDS011;35974;47.752;10.290;2023-03-23T00:39:12;8.43;;;4.75;;
50092;SDS011;35974;47.752;10.290;2023-03-23T00:41:37;9.48;;;5.25;;
50092;SDS011;35974;47.752;10.290;2023-03-23T00:44:03;8.57;;;5.20;;
50092;SDS011;35974;47.752;10.290;2023-03-23T00:46:29;7.22;;;4.68;;
50092;SDS011;35974;47.752;10.290;2023-03-23T00:48:55;7.45;;;5.07;;
50092;SDS011;35974;47.752;10.290;2023-03-23T00:51:21;7.25;;;4.70;;
50092;SDS011;35974;47.752;10.290;2023-03-23T00:53:47;7.35;;;5.07;;
50092;SDS011;35974;47.752;10.290;2023-03-23T00:56:13;9.98;;;5.50;;
50092;SDS011;35974;47.752;10.290;2023-03-23T00:58:39;8.15;;;5.05;;
50092;SDS011;35974;47.752;10.290;2023-03-23T01:01:04;8.00;;;4.68;;
50092;SDS011;35974;47.752;10.290;2023-03-23T01:03:30;8.73;;;5.18;;
50092;SDS011;35974;47.752;10.290;2023-03-23T01:05:56;7.85;;;5.03;;
50092;SDS011;35974;47.752;10.290;2023-03-23T01:08:22;9.43;;;4.53;;
50092;SDS011;35974;47.752;10.290;2023-03-23T01:10:48;7.10;;;4.10;;
50092;SDS011;35974;47.752;10.290;2023-03-23T01:13:14;9.57;;;4.75;;
50092;SDS011;35974;47.752;10.290;2023-03-23T01:15:41;6.47;;;4.47;;
50092;SDS011;35974;47.752;10.290;2023-03-23T01:18:07;7.70;;;4.78;;
50092;SDS011;35974;47.752;10.290;2023-03-23T01:23:13;6.78;;;4.78;;
50092;SDS011;35974;47.752;10.290;2023-03-23T01:25:39;9.13;;;4.93;;
50092;SDS011;35974;47.752;10.290;2023-03-23T01:28:04;7.55;;;4.47;;
50092;SDS011;35974;47.752;10.290;2023-03-23T01:30:29;7.50;;;4.85;;
50092;SDS011;35974;47.752;10.290;2023-03-23T01:32:55;7.70;;;4.60;;
50092;SDS011;35974;47.752;10.290;2023-03-23T01:35:20;8.35;;;4.40;;
50092;SDS011;35974;47.752;10.290;2023-03-23T01:37:46;9.27;;;4.78;;
50092;SDS011;35974;47.752;10.290;2023-03-23T01:40:12;7.85;;;4.45;;
50092;SDS011;35974;47.752;10.290;2023-03-23T01:42:38;6.82;;;4.72;;
50092;SDS011;35974;47.752;10.290;2023-03-23T01:47:48;11.77;;;4.88;;
50092;SDS011;35974;47.752;10.290;2023-03-23T01:50:18;8.00;;;4.55;;
50092;SDS011;35974;47.752;10.290;2023-03-23T01:52:48;10.00;;;4.80;;
50092;SDS011;35974;47.752;10.290;2023-03-23T01:55:14;6.72;;;4.38;;
50092;SDS011;35974;47.752;10.290;2023-03-23T01:57:40;7.20;;;4.80;;
50092;SDS011;35974;47.752;10.290;2023-03-23T02:00:07;6.68;;;4.50;;
50092;SDS011;35974;47.752;10.290;2023-03-23T02:02:35;7.32;;;4.50;;
50092;SDS011;35974;47.752;10.290;2023-03-23T02:05:02;7.20;;;4.78;;
50092;SDS011;35974;47.752;10.290;2023-03-23T02:10:06;7.57;;;4.95;;
50092;SDS011;35974;47.752;10.290;2023-03-23T02:12:32;7.93;;;4.68;;
50092;SDS011;35974;47.752;10.290;2023-03-23T02:14:58;6.90;;;4.63;;
50092;SDS011;35974;47.752;10.290;2023-03-23T02:17:30;5.93;;;4.30;;
50092;SDS011;35974;47.752;10.290;2023-03-23T02:31:04;6.57;;;4.68;;
50092;SDS011;35974;47.752;10.290;2023-03-23T02:36:25;8.80;;;4.55;;
50092;SDS011;35974;47.752;10.290;2023-03-23T02:39:17;7.65;;;4.75;;
50092;SDS011;35974;47.752;10.290;2023-03-23T02:41:51;8.50;;;4.80;;
50092;SDS011;35974;47.752;10.290;2023-03-23T02:44:21;7.25;;;4.70;;
50092;SDS011;35974;47.752;10.290;2023-03-23T02:46:49;7.55;;;5.13;;
50092;SDS011;35974;47.752;10.290;2023-03-23T02:49:17;6.47;;;4.47;;
50092;SDS011;35974;47.752;10.290;2023-03-23T02:51:45;9.20;;;4.72;;
50092;SDS011;35974;47.752;10.290;2023-03-23T02:54:11;7.53;;;4.82;;
50092;SDS011;35974;47.752;10.290;2023-03-23T02:56:39;6.63;;;4.65;;
50092;SDS011;35974;47.752;10.290;2023-03-23T02:59:05;7.90;;;4.97;;
50092;SDS011;35974;47.752;10.290;2023-03-23T03:04:01;8.10;;;4.60;;
50092;SDS011;35974;47.752;10.290;2023-03-23T03:09:18;6.68;;;4.35;;
50092;SDS011;35974;47.752;10.290;2023-03-23T03:12:12;8.00;;;4.90;;
50092;SDS011;35974;47.752;10.290;2023-03-23T03:14:49;7.03;;;4.47;;
50092;SDS011;35974;47.752;10.290;2023-03-23T03:17:23;9.45;;;4.72;;
50092;SDS011;35974;47.752;10.290;2023-03-23T03:19:50;6.22;;;4.57;;
50092;SDS011;35974;47.752;10.290;2023-03-23T03:22:22;6.35;;;4.05;;
50092;SDS011;35974;47.752;10.290;2023-03-23T03:24:54;5.70;;;4.28;;
50092;SDS011;35974;47.752;10.290;2023-03-23T03:27:22;7.13;;;4.60;;
50092;SDS011;35974;47.752;10.290;2023-03-23T03:29:51;7.10;;;4.78;;
50092;SDS011;35974;47.752;10.290;2023-03-23T03:32:22;7.57;;;4.38;;
50092;SDS011;35974;47.752;10.290;2023-03-23T03:34:51;7.57;;;4.35;;
50092;SDS011;35974;47.752;10.290;2023-03-23T03:37:17;5.70;;;4.15;;
50092;SDS011;35974;47.752;10.290;2023-03-23T03:39:43;7.78;;;4.78;;
50092;SDS011;35974;47.752;10.290;2023-03-23T03:42:09;8.02;;;4.88;;
50092;SDS011;35974;47.752;10.290;2023-03-23T03:44:34;5.97;;;4.30;;
50092;SDS011;35974;47.752;10.290;2023-03-23T03:47:00;11.38;;;5.22;;
50092;SDS011;35974;47.752;10.290;2023-03-23T03:49:25;9.27;;;5.15;;
50092;SDS011;35974;47.752;10.290;2023-03-23T03:51:52;10.50;;;5.13;;
50092;SDS011;35974;47.752;10.290;2023-03-23T03:54:17;9.75;;;4.93;;
50092;SDS011;35974;47.752;10.290;2023-03-23T03:56:43;7.28;;;4.47;;
50092;SDS011;35974;47.752;10.290;2023-03-23T03:59:09;9.07;;;5.25;;
50092;SDS011;35974;47.752;10.290;2023-03-23T04:01:36;7.88;;;5.30;;
50092;SDS011;35974;47.752;10.290;2023-03-23T04:04:02;9.43;;;5.53;;
50092;SDS011;35974;47.752;10.290;2023-03-23T04:06:29;14.13;;;6.10;;
50092;SDS011;35974;47.752;10.290;2023-03-23T04:08:55;8.98;;;5.38;;
50092;SDS011;35974;47.752;10.290;2023-03-23T04:11:23;7.97;;;5.68;;
50092;SDS011;35974;47.752;10.290;2023-03-23T04:13:50;9.45;;;5.90;;
50092;SDS011;35974;47.752;10.290;2023-03-23T04:16:16;7.90;;;5.25;;
50092;SDS011;35974;47.752;10.290;2023-03-23T04:18:42;7.97;;;5.35;;
50092;SDS011;35974;47.752;10.290;2023-03-23T04:21:09;7.57;;;5.50;;
50092;SDS011;35974;47.752;10.290;2023-03-23T04:23:35;7.60;;;5.30;;
50092;SDS011;35974;47.752;10.290;2023-03-23T04:26:01;8.27;;;5.22;;
50092;SDS011;35974;47.752;10.290;2023-03-23T04:28:28;8.73;;;5.45;;
50092;SDS011;35974;47.752;10.290;2023-03-23T04:30:54;7.55;;;5.45;;
50092;SDS011;35974;47.752;10.290;2023-03-23T04:33:23;10.10;;;5.50;;
50092;SDS011;35974;47.752;10.290;2023-03-23T04:35:55;10.02;;;5.50;;
50092;SDS011;35974;47.752;10.290;2023-03-23T04:38:26;7.68;;;5.20;;
50092;SDS011;35974;47.752;10.290;2023-03-23T04:40:52;7.38;;;4.82;;
50092;SDS011;35974;47.752;10.290;2023-03-23T04:43:22;7.22;;;4.38;;
50092;SDS011;35974;47.752;10.290;2023-03-23T04:45:58;7.90;;;4.80;;
50092;SDS011;35974;47.752;10.290;2023-03-23T04:48:26;8.15;;;5.07;;
50092;SDS011;35974;47.752;10.290;2023-03-23T04:50:55;7.97;;;4.78;;
50092;SDS011;35974;47.752;10.290;2023-03-23T04:58:50;11.73;;;5.78;;
50092;SDS011;35974;47.752;10.290;2023-03-23T05:01:22;9.35;;;5.18;;
50092;SDS011;35974;47.752;10.290;2023-03-23T05:03:51;9.60;;;5.65;;
50092;SDS011;35974;47.752;10.290;2023-03-23T05:06:20;7.35;;;5.32;;
50092;SDS011;35974;47.752;10.290;2023-03-23T05:08:50;10.88;;;5.38;;
50092;SDS011;35974;47.752;10.290;2023-03-23T05:11:16;8.15;;;5.60;;
50092;SDS011;35974;47.752;10.290;2023-03-23T05:13:41;13.02;;;6.28;;
50092;SDS011;35974;47.752;10.290;2023-03-23T05:16:19;8.50;;;5.45;;
50092;SDS011;35974;47.752;10.290;2023-03-23T05:18:49;7.57;;;5.28;;
50092;SDS011;35974;47.752;10.290;2023-03-23T05:21:14;10.20;;;5.68;;
50092;SDS011;35974;47.752;10.290;2023-03-23T05:23:40;9.88;;;5.45;;
50092;SDS011;35974;47.752;10.290;2023-03-23T05:26:05;9.30;;;5.90;;
50092;SDS011;35974;47.752;10.290;2023-03-23T05:28:36;8.20;;;5.47;;
50092;SDS011;35974;47.752;10.290;2023-03-23T05:31:02;10.07;;;5.40;;
50092;SDS011;35974;47.752;10.290;2023-03-23T05:33:27;9.23;;;5.18;;
50092;SDS011;35974;47.752;10.290;2023-03-23T05:35:53;6.32;;;4.80;;
50092;SDS011;35974;47.752;10.290;2023-03-23T05:38:19;7.88;;;4.65;;
50092;SDS011;35974;47.752;10.290;2023-03-23T05:40:44;8.07;;;5.55;;
50092;SDS011;35974;47.752;10.290;2023-03-23T05:43:10;6.13;;;4.68;;
50092;SDS011;35974;47.752;10.290;2023-03-23T05:45:35;9.82;;;5.03;;
50092;SDS011;35974;47.752;10.290;2023-03-23T05:48:09;8.88;;;5.30;;
50092;SDS011;35974;47.752;10.290;2023-03-23T05:50:34;13.18;;;5.90;;
50092;SDS011;35974;47.752;10.290;2023-03-23T05:53:00;9.13;;;5.65;;
50092;SDS011;35974;47.752;10.290;2023-03-23T05:55:28;12.50;;;5.60;;
50092;SDS011;35974;47.752;10.290;2023-03-23T05:57:55;10.52;;;5.40;;
50092;SDS011;35974;47.752;10.290;2023-03-23T06:00:21;10.40;;;3.92;;
50092;SDS011;35974;47.752;10.290;2023-03-23T06:02:48;5.95;;;3.33;;
50092;SDS011;35974;47.752;10.290;2023-03-23T06:05:16;4.85;;;3.33;;
50092;SDS011;35974;47.752;10.290;2023-03-23T06:07:42;5.65;;;3.28;;
50092;SDS011;35974;47.752;10.290;2023-03-23T06:10:10;5.45;;;2.90;;
50092;SDS011;35974;47.752;10.290;2023-03-23T06:12:36;12.02;;;3.72;;
50092;SDS011;35974;47.752;10.290;2023-03-23T06:15:03;10.75;;;3.70;;
50092;SDS011;35974;47.752;10.290;2023-03-23T06:17:31;7.38;;;4.07;;
50092;SDS011;35974;47.752;10.290;2023-03-23T06:19:57;7.75;;;3.92;;
50092;SDS011;35974;47.752;10.290;2023-03-23T06:24:58;8.10;;;4.60;;
50092;SDS011;35974;47.752;10.290;2023-03-23T06:29:50;10.35;;;4.88;;
50092;SDS011;35974;47.752;10.290;2023-03-23T06:32:16;13.23;;;5.25;;
50092;SDS011;35974;47.752;10.290;2023-03-23T06:34:42;7.82;;;4.07;;
50092;SDS011;35974;47.752;10.290;2023-03-23T06:37:12;7.78;;;4.22;;
50092;SDS011;35974;47.752;10.290;2023-03-23T06:39:39;6.55;;;3.60;;
50092;SDS011;35974;47.752;10.290;2023-03-23T06:42:08;6.72;;;3.42;;
50092;SDS011;35974;47.752;10.290;2023-03-23T06:44:34;4.78;;;3.08;;
50092;SDS011;35974;47.752;10.290;2023-03-23T06:49:27;3.53;;;2.10;;
50092;SDS011;35974;47.752;10.290;2023-03-23T06:51:52;2.53;;;2.00;;
50092;SDS011;35974;47.752;10.290;2023-03-23T06:54:21;4.90;;;2.33;;
50092;SDS011;35974;47.752;10.290;2023-03-23T06:59:26;7.25;;;2.42;;
50092;SDS011;35974;47.752;10.290;2023-03-23T07:01:52;3.92;;;2.40;;
50092;SDS011;35974;47.752;10.290;2023-03-23T07:04:18;2.90;;;2.05;;
